createdAt,value
2019-05-14T00:04:28.746Z,77.52
2019-05-14T00:07:41.399Z,77.60
2019-05-14T00:10:27.948Z,77.12
2019-05-14T00:16:17.544Z,77.93
2019-05-14T00:19:16.901Z,77.94
2019-05-14T00:22:08.470Z,77.67
2019-05-14T00:25:16.017Z,77.66
2019-05-14T00:30:47.501Z,77.57
2019-05-14T00:33:31.454Z,77.56
2019-05-14T00:36:14.082Z,77.44
2019-05-14T00:55:31.706Z,78.28
2019-05-14T01:05:18.643Z,78.44
2019-05-14T01:11:55.168Z,78.41
2019-05-14T01:29:42.171Z,78.61
2019-05-14T03:56:49.669Z,77.96
2019-05-14T03:59:20.302Z,77.56
2019-05-14T04:01:51.878Z,77.40
2019-05-14T04:04:29.914Z,77.08
2019-05-14T04:08:50.625Z,76.91
2019-05-14T04:49:41.703Z,74.20
2019-05-14T04:52:20.261Z,73.97
2019-05-14T04:54:51.300Z,73.70
2019-05-14T04:57:32.875Z,73.10
2019-05-14T05:00:07.117Z,72.53
2019-05-14T05:02:53.232Z,72.36
2019-05-14T05:05:24.785Z,72.40
2019-05-14T05:07:59.676Z,71.99
2019-05-14T05:10:39.855Z,70.94
2019-05-14T05:13:11.306Z,71.25
2019-05-14T05:15:42.937Z,70.76
2019-05-14T05:18:13.718Z,70.40
2019-05-14T05:20:44.855Z,70.14
2019-05-14T05:23:20.271Z,69.49
2019-05-14T05:25:49.699Z,69.51
2019-05-14T05:28:24.225Z,69.78
2019-05-14T05:30:58.619Z,69.61
2019-05-14T05:33:30.525Z,69.58
2019-05-14T05:36:05.134Z,69.17
2019-05-14T05:38:39.347Z,69.04
2019-05-14T05:41:12.827Z,69.17
2019-05-14T05:43:48.411Z,68.95
2019-05-14T05:46:22.933Z,67.55
2019-05-14T05:49:12.280Z,68.21
2019-05-14T05:51:48.403Z,68.23
2019-05-14T05:54:50.883Z,68.13
2019-05-14T05:57:35.139Z,68.13
2019-05-14T06:00:10.808Z,67.63
2019-05-14T06:02:45.399Z,67.53
2019-05-14T06:05:19.983Z,67.63
2019-05-14T06:08:00.921Z,67.36
2019-05-14T06:10:54.283Z,67.41
2019-05-14T06:13:28.948Z,67.11
2019-05-14T06:16:03.782Z,67.00
2019-05-14T06:18:53.632Z,67.19
2019-05-14T06:21:24.940Z,67.12
2019-05-14T06:23:58.215Z,66.80
2019-05-14T06:26:29.510Z,65.22
2019-05-14T06:29:00.466Z,65.78
2019-05-14T06:31:31.933Z,65.55
2019-05-14T06:34:03.027Z,65.16
2019-05-14T06:36:35.465Z,65.00
2019-05-14T06:39:09.042Z,64.81
2019-05-14T06:41:42.838Z,64.87
2019-05-14T06:44:12.910Z,64.53
2019-05-14T06:46:49.058Z,64.72
2019-05-14T06:49:20.449Z,62.83
2019-05-14T06:51:51.920Z,62.83
2019-05-14T06:54:22.590Z,63.00
2019-05-14T06:56:53.825Z,62.41
2019-05-14T07:09:45.879Z,61.89
2019-05-14T07:12:25.259Z,62.19
2019-05-14T07:15:09.304Z,62.26
2019-05-14T07:18:10.042Z,62.80
2019-05-14T07:20:50.751Z,62.21
2019-05-14T07:23:32.894Z,61.57
2019-05-14T07:32:52.109Z,61.00
2019-05-14T07:35:32.734Z,61.34
2019-05-14T07:38:15.565Z,60.92
2019-05-14T07:40:51.891Z,60.83
2019-05-14T07:45:05.561Z,60.79
2019-05-14T07:46:16.045Z,59.87
2019-05-14T07:49:11.523Z,58.23
2019-05-14T07:51:48.198Z,58.75
2019-05-14T07:54:22.282Z,59.65
2019-05-14T07:57:19.252Z,60.40
2019-05-14T07:59:52.279Z,56.41
2019-05-14T08:02:29.003Z,56.12
2019-05-14T08:05:00.982Z,57.35
2019-05-14T08:07:33.415Z,57.84
2019-05-14T08:10:18.708Z,56.70
2019-05-14T08:12:50.335Z,56.90
2019-05-14T08:15:27.998Z,55.44
2019-05-14T08:18:08.264Z,54.32
2019-05-14T08:20:51.650Z,54.42
2019-05-14T08:23:48.788Z,55.24
2019-05-14T08:26:24.416Z,55.13
2019-05-14T08:28:58.065Z,54.99
2019-05-14T08:31:49.626Z,53.31
2019-05-14T08:34:30.373Z,52.32
2019-05-14T08:37:04.067Z,54.25
2019-05-14T08:39:43.676Z,52.68
2019-05-14T08:42:18.916Z,52.13
2019-05-14T08:44:55.308Z,52.64
2019-05-14T08:47:29.665Z,52.48
2019-05-14T08:50:02.478Z,52.33
2019-05-14T08:52:40.954Z,52.66
2019-05-14T08:55:18.597Z,51.49
2019-05-14T08:57:59.460Z,52.34
2019-05-14T09:00:31.004Z,52.29
2019-05-14T09:03:05.135Z,52.66
2019-05-14T09:05:38.786Z,51.20
2019-05-14T09:08:19.227Z,50.74
2019-05-14T09:10:58.926Z,49.09
2019-05-14T09:13:28.938Z,49.12
2019-05-14T09:16:00.541Z,48.87
2019-05-14T09:18:31.257Z,51.06
2019-05-14T09:23:52.266Z,50.03
2019-05-14T09:26:23.988Z,49.57
2019-05-14T09:29:16.956Z,49.56
2019-05-14T09:31:38.789Z,49.24
2019-05-14T09:34:11.793Z,49.67
2019-05-14T09:36:44.804Z,50.03
2019-05-14T09:39:18.566Z,51.27
2019-05-14T09:41:52.181Z,51.28
2019-05-14T09:44:24.592Z,50.51
2019-05-14T09:46:59.425Z,48.29
2019-05-14T09:49:32.169Z,47.62
2019-05-14T09:52:03.532Z,48.67
2019-05-14T09:54:39.363Z,49.25
2019-05-14T09:57:13.198Z,50.28
2019-05-14T09:59:44.661Z,48.96
2019-05-14T10:02:16.117Z,48.79
2019-05-14T10:04:48.974Z,49.28
2019-05-14T10:07:20.685Z,49.76
2019-05-14T10:09:51.980Z,47.60
2019-05-14T10:12:22.530Z,46.97
2019-05-14T10:14:53.712Z,47.03
2019-05-14T10:17:24.415Z,48.73
2019-05-14T10:20:11.426Z,48.62
2019-05-14T10:22:43.787Z,46.72
2019-05-14T10:25:15.149Z,46.35
2019-05-14T10:27:48.571Z,46.92
2019-05-14T10:30:19.595Z,47.00
2019-05-14T10:32:51.825Z,46.67
2019-05-14T10:35:28.543Z,45.98
2019-05-14T10:38:00.557Z,47.66
2019-05-14T10:40:31.854Z,46.74
2019-05-14T10:43:02.563Z,45.96
2019-05-14T10:45:33.594Z,46.11
2019-05-14T10:48:04.299Z,46.25
2019-05-14T10:50:52.222Z,46.26
2019-05-14T10:53:09.203Z,45.74
2019-05-14T10:55:40.572Z,46.02
2019-05-14T10:58:12.838Z,46.59
2019-05-14T11:00:43.469Z,47.50
2019-05-14T11:03:14.540Z,47.36
2019-05-14T11:05:45.231Z,46.98
2019-05-14T11:08:18.711Z,47.27
2019-05-14T11:10:49.957Z,47.16
2019-05-14T11:13:21.418Z,47.29
2019-05-14T11:15:52.129Z,47.05
2019-05-14T11:18:24.882Z,47.87
2019-05-14T11:21:16.230Z,47.85
2019-05-14T11:23:29.956Z,47.59
2019-05-14T11:26:01.824Z,47.37
2019-05-14T11:28:34.736Z,47.43
2019-05-14T11:31:06.000Z,46.92
2019-05-14T11:33:38.821Z,47.60
2019-05-14T11:36:10.262Z,47.55
2019-05-14T11:38:41.534Z,47.79
2019-05-14T11:41:12.195Z,48.33
2019-05-14T11:43:43.296Z,47.53
2019-05-14T11:46:14.907Z,48.08
2019-05-14T11:48:48.695Z,47.46
2019-05-14T11:51:19.268Z,47.74
2019-05-14T11:53:51.238Z,47.66
2019-05-14T11:56:21.998Z,46.82
2019-05-14T11:58:53.192Z,46.44
2019-05-14T12:01:24.551Z,46.30
2019-05-14T12:03:55.205Z,46.98
2019-05-14T12:06:26.498Z,45.96
2019-05-14T12:08:58.288Z,46.12
2019-05-14T12:11:29.783Z,46.40
2019-05-14T12:14:01.353Z,45.42
2019-05-14T12:16:32.017Z,44.96
2019-05-14T12:19:03.174Z,45.06
2019-05-14T12:21:34.687Z,44.24
2019-05-14T12:24:06.494Z,44.96
2019-05-14T12:26:38.653Z,45.78
2019-05-14T12:29:10.288Z,46.03
2019-05-14T12:31:41.741Z,45.13
2019-05-14T12:34:13.223Z,44.40
2019-05-14T12:36:43.874Z,43.24
2019-05-14T12:39:14.916Z,43.64
2019-05-14T12:41:46.178Z,43.69
2019-05-14T12:44:19.554Z,43.92
2019-05-14T12:46:50.157Z,42.71
2019-05-14T12:49:21.458Z,43.44
2019-05-14T12:51:52.638Z,43.30
2019-05-14T12:54:29.677Z,43.62
2019-05-14T12:57:00.095Z,44.04
2019-05-14T12:59:30.719Z,43.59
2019-05-14T13:02:01.853Z,43.58
2019-05-14T13:04:33.067Z,43.62
2019-05-14T13:07:03.679Z,43.62
2019-05-14T13:09:34.783Z,42.94
2019-05-14T13:12:10.953Z,43.12
2019-05-14T13:14:39.683Z,43.94
2019-05-14T13:17:11.192Z,41.89
2019-05-14T13:19:41.753Z,42.28
2019-05-14T13:22:18.181Z,42.56
2019-05-14T13:24:49.179Z,42.36
2019-05-14T13:27:19.775Z,42.98
2019-05-14T13:29:51.032Z,42.85
2019-05-14T13:32:21.659Z,42.04
2019-05-14T13:34:52.705Z,41.96
2019-05-14T13:37:23.949Z,42.04
2019-05-14T13:39:54.557Z,41.45
2019-05-14T13:42:25.692Z,42.43
2019-05-14T13:44:58.450Z,42.58
2019-05-14T13:47:29.805Z,42.05
2019-05-14T13:50:01.080Z,41.28
2019-05-14T13:52:33.471Z,41.56
2019-05-14T13:55:04.420Z,42.00
2019-05-14T13:57:35.495Z,41.59
2019-05-14T14:00:11.564Z,39.78
2019-05-14T14:02:39.021Z,40.34
2019-05-14T14:05:09.622Z,40.30
2019-05-14T14:07:44.585Z,41.31
2019-05-14T14:10:13.668Z,40.75
2019-05-14T14:12:44.335Z,41.50
2019-05-14T14:15:15.429Z,41.11
2019-05-14T14:17:46.024Z,41.18
2019-05-14T14:20:19.414Z,41.34
2019-05-14T14:22:50.059Z,41.18
2019-05-14T14:25:20.612Z,41.88
2019-05-14T14:27:51.703Z,42.35
2019-05-14T14:30:24.107Z,42.40
2019-05-14T14:32:58.558Z,42.59
2019-05-14T14:35:32.873Z,42.77
2019-05-14T14:38:09.929Z,40.91
2019-05-14T14:40:44.151Z,41.13
2019-05-14T14:43:31.118Z,41.62
2019-05-14T14:46:19.617Z,41.11
2019-05-14T14:49:10.827Z,39.74
2019-05-14T14:51:45.098Z,40.11
2019-05-14T14:54:22.505Z,39.82
2019-05-14T14:57:00.228Z,39.96
2019-05-14T14:59:41.122Z,40.71
2019-05-14T15:02:28.544Z,41.14
2019-05-14T15:04:59.776Z,40.14
2019-05-14T15:07:41.462Z,40.20
2019-05-14T15:10:28.435Z,39.80
2019-05-14T15:13:15.715Z,39.72
2019-05-14T15:16:00.832Z,39.21
2019-05-14T15:18:50.416Z,39.03
2019-05-14T15:21:29.996Z,39.47
2019-05-14T15:24:16.007Z,39.66
2019-05-14T15:26:55.271Z,39.73
2019-05-14T15:29:28.409Z,40.30
2019-05-14T15:32:04.877Z,41.36
2019-05-14T15:34:43.051Z,41.70
2019-05-14T15:37:16.050Z,41.85
2019-05-14T15:39:49.050Z,42.28
2019-05-14T15:42:24.084Z,42.43
2019-05-14T15:44:59.204Z,42.78
2019-05-14T15:47:29.663Z,43.06
2019-05-14T15:50:05.261Z,43.32
2019-05-14T15:52:40.895Z,43.21
2019-05-14T15:55:14.329Z,43.60
2019-05-14T15:57:48.633Z,43.31
2019-05-14T16:00:20.706Z,43.13
2019-05-14T16:02:52.174Z,43.32
2019-05-14T16:05:28.522Z,43.78
2019-05-14T16:08:05.858Z,44.31
2019-05-14T16:10:39.774Z,44.74
2019-05-14T16:13:10.795Z,45.34
2019-05-14T16:15:41.617Z,45.79
2019-05-14T16:18:18.343Z,46.42
2019-05-14T16:20:46.360Z,46.45
2019-05-14T16:23:18.735Z,46.54
2019-05-14T16:25:50.333Z,46.84
2019-05-14T16:28:21.108Z,47.06
2019-05-14T16:30:52.252Z,47.51
2019-05-14T16:33:23.818Z,47.60
2019-05-14T16:35:54.560Z,48.04
2019-05-14T16:38:28.717Z,48.43
2019-05-14T16:41:00.476Z,48.70
2019-05-14T16:43:32.359Z,48.66
2019-05-14T16:46:04.540Z,48.78
2019-05-14T16:48:36.039Z,48.94
2019-05-14T16:51:08.946Z,49.02
2019-05-14T16:54:03.865Z,49.07
2019-05-14T16:56:34.553Z,49.30
2019-05-14T16:59:05.655Z,49.62
2019-05-14T17:01:36.277Z,49.35
2019-05-14T17:04:09.238Z,49.83
2019-05-14T17:06:40.388Z,49.79
2019-05-14T17:09:11.060Z,50.22
2019-05-14T17:11:42.165Z,50.78
2019-05-14T17:14:12.872Z,50.83
2019-05-14T17:16:44.082Z,50.93
2019-05-14T17:19:14.752Z,50.77
2019-05-14T17:21:48.556Z,51.05
2019-05-14T17:24:21.941Z,52.36
2019-05-14T17:26:58.149Z,53.87
2019-05-14T17:29:28.978Z,54.64
2019-05-14T17:31:59.624Z,54.91
2019-05-14T17:34:30.747Z,56.10
2019-05-14T17:37:01.506Z,56.45
2019-05-14T17:39:32.666Z,57.07
2019-05-14T17:42:03.342Z,57.23
2019-05-14T17:44:34.457Z,58.03
2019-05-14T17:47:06.768Z,57.87
2019-05-14T17:49:39.120Z,58.66
2019-05-14T17:52:10.941Z,59.02
2019-05-14T17:54:48.292Z,59.71
2019-05-14T17:57:24.961Z,60.47
2019-05-14T17:59:51.616Z,60.33
2019-05-14T18:02:22.319Z,60.66
2019-05-14T18:04:59.257Z,61.53
2019-05-14T18:07:29.720Z,61.19
2019-05-14T18:10:00.731Z,61.25
2019-05-14T18:12:31.968Z,61.55
2019-05-14T18:15:08.542Z,61.18
2019-05-14T18:17:39.955Z,61.51
2019-05-14T18:20:11.710Z,61.78
2019-05-14T18:22:44.823Z,61.74
2019-05-14T18:25:18.305Z,62.06
2019-05-14T18:27:50.112Z,62.27
2019-05-14T18:30:22.566Z,62.31
2019-05-14T18:32:55.357Z,62.03
2019-05-14T18:35:26.161Z,62.48
2019-05-14T18:37:56.986Z,62.40
2019-05-14T18:40:28.234Z,62.94
2019-05-14T18:42:59.782Z,62.98
2019-05-14T18:45:31.172Z,63.28
2019-05-14T18:48:02.802Z,63.23
2019-05-14T18:50:34.321Z,63.27
2019-05-14T18:53:05.211Z,63.39
2019-05-14T18:55:38.588Z,63.83
2019-05-14T18:58:10.305Z,63.69
2019-05-14T19:00:43.893Z,63.90
2019-05-14T19:03:15.039Z,64.41
2019-05-14T19:05:47.910Z,63.91
2019-05-14T19:08:20.914Z,64.42
2019-05-14T19:10:55.055Z,63.86
2019-05-14T19:13:28.166Z,63.83
2019-05-14T19:16:02.500Z,63.97
2019-05-14T19:18:33.915Z,63.90
2019-05-14T19:21:08.651Z,64.04
2019-05-14T19:23:39.829Z,63.99
2019-05-14T19:26:10.544Z,63.98
2019-05-14T19:28:43.156Z,64.50
2019-05-14T19:31:15.017Z,64.38
2019-05-14T19:33:48.657Z,64.32
2019-05-14T19:36:22.232Z,64.39
2019-05-14T19:38:54.652Z,64.24
2019-05-14T19:41:28.136Z,64.24
2019-05-14T19:43:59.792Z,64.46
2019-05-14T19:46:32.941Z,64.84
2019-05-14T19:49:04.418Z,64.89
2019-05-14T19:51:35.110Z,64.73
2019-05-14T19:54:08.193Z,65.41
2019-05-14T19:56:52.444Z,65.05
2019-05-14T19:59:12.793Z,65.12
2019-05-14T20:01:44.462Z,65.24
2019-05-14T20:04:18.944Z,65.38
2019-05-14T20:06:49.795Z,65.43
2019-05-14T20:09:28.493Z,65.79
2019-05-14T20:12:00.011Z,65.66
2019-05-14T20:14:31.559Z,65.75
2019-05-14T20:17:02.439Z,65.80
2019-05-14T20:19:33.675Z,66.23
2019-05-14T20:22:05.343Z,65.86
2019-05-14T20:24:41.215Z,65.65
2019-05-14T20:27:12.286Z,65.66
2019-05-14T20:29:43.628Z,65.81
2019-05-14T20:32:15.229Z,65.80
2019-05-14T20:34:48.471Z,66.00
2019-05-14T20:37:19.626Z,66.52
2019-05-14T20:39:51.211Z,66.27
2019-05-14T20:42:22.608Z,66.31
2019-05-14T20:44:53.493Z,66.06
2019-05-14T20:47:24.564Z,66.60
2019-05-14T20:49:55.414Z,66.49
2019-05-14T20:52:28.426Z,66.91
2019-05-14T20:54:59.729Z,66.63
2019-05-14T20:57:33.501Z,66.75
2019-05-14T21:00:03.157Z,67.06
2019-05-14T21:02:34.950Z,66.78
2019-05-14T21:05:13.396Z,66.88
2019-05-14T21:07:41.699Z,67.28
2019-05-14T21:10:12.497Z,67.26
2019-05-14T21:12:43.710Z,67.65
2019-05-14T21:15:15.161Z,67.29
2019-05-14T21:17:50.180Z,67.27
2019-05-14T21:20:19.949Z,67.32
2019-05-14T21:22:50.798Z,67.38
2019-05-14T21:25:21.950Z,67.69
2019-05-14T21:27:52.841Z,67.64
2019-05-14T21:30:24.120Z,67.95
2019-05-14T21:32:55.738Z,67.48
2019-05-14T21:35:29.221Z,67.37
2019-05-14T21:38:01.426Z,67.64
2019-05-14T21:40:33.241Z,67.59
2019-05-14T21:43:04.027Z,67.66
2019-05-14T21:45:38.316Z,68.00
2019-05-14T21:48:09.477Z,67.73
2019-05-14T21:50:40.283Z,67.62
2019-05-14T21:53:11.355Z,67.96
2019-05-14T21:55:42.177Z,67.90
2019-05-14T21:58:13.305Z,68.45
2019-05-14T22:01:00.239Z,68.10
2019-05-14T22:03:31.744Z,68.29
2019-05-14T22:06:03.446Z,68.11
2019-05-14T22:08:34.988Z,68.21
2019-05-14T22:11:05.809Z,68.21
2019-05-14T22:13:38.117Z,68.45
2019-05-14T22:16:09.755Z,68.19
2019-05-14T22:18:40.624Z,68.24
2019-05-14T22:21:11.854Z,68.81
2019-05-14T22:23:43.306Z,68.72
2019-05-14T22:26:14.069Z,68.64
2019-05-14T22:28:45.196Z,68.91
2019-05-14T22:31:19.096Z,68.70
2019-05-14T22:33:49.801Z,68.72
2019-05-14T22:36:21.599Z,68.63
2019-05-14T22:38:54.298Z,68.77
2019-05-14T22:41:25.999Z,68.71
2019-05-14T22:43:59.866Z,68.73
2019-05-14T22:46:31.036Z,68.89
2019-05-14T22:49:02.405Z,69.21
2019-05-14T22:51:33.923Z,68.95
2019-05-14T22:54:04.721Z,68.90
2019-05-14T22:56:35.768Z,68.73
2019-05-14T22:59:06.610Z,68.08
2019-05-14T23:01:38.633Z,68.38
2019-05-14T23:04:10.356Z,67.98
2019-05-14T23:06:42.078Z,68.19
2019-05-14T23:09:12.717Z,68.44
2019-05-14T23:11:43.872Z,68.63
2019-05-14T23:14:18.416Z,68.27
2019-05-14T23:16:49.508Z,68.24
2019-05-14T23:19:20.892Z,68.29
2019-05-14T23:21:52.321Z,68.43
2019-05-14T23:24:23.988Z,68.49
2019-05-14T23:26:54.845Z,68.38
2019-05-14T23:29:25.959Z,68.67
2019-05-14T23:31:58.804Z,68.48
2019-05-14T23:34:29.957Z,68.90
2019-05-14T23:37:00.769Z,68.72
2019-05-14T23:39:32.815Z,69.16
2019-05-14T23:42:04.437Z,69.12
2019-05-14T23:44:38.121Z,69.19
2019-05-14T23:47:09.024Z,69.12
2019-05-14T23:49:40.362Z,69.11
2019-05-14T23:52:11.118Z,69.21
2019-05-14T23:54:42.225Z,69.87
2019-05-14T23:57:13.717Z,70.08
2019-05-14T23:59:44.466Z,70.52
